Time;durP1;ratioP1;P1;durP2;ratioP2;P2;SDS_P1;SDS_P2;PMS_P1;PMS_P2;Temp;Humidity;BMP_temperature;BMP_pressure;BME280_temperature;BME280_humidity;BME280_pressure;Samples;Min_cycle;Max_cycle;Signal;HPM_P1;HPM_P2
2023/03/06 00:01:29;;;;;;;4.80;1.10;;;2.80;99.90;;;;;;5068897;28;20040;-84
2023/03/06 00:04:09;;;;;;;;;;;;;;;;;;;;;
2023/03/06 00:06:35;;;;;;;1.67;0.75;;;2.50;99.90;;;;;;5079462;28;20059;-87
2023/03/06 00:09:24;;;;;;;1.65;0.80;;;2.10;99.90;;;;;;5059345;28;20571;-84
2023/03/06 00:11:55;;;;;;;3.15;1.38;;;2.50;99.90;;;;;;5066232;28;20132;-84
2023/03/06 00:29:32;;;;;;;1.60;0.75;;;1.70;99.90;;;;;;5085851;28;20146;-81
2023/03/06 00:32:23;;;;;;;;;;;;;;;;;;;;;
2023/03/06 00:35:37;;;;;;;2.55;0.80;;;1.70;99.90;;;;;;5071445;28;20090;-82
2023/03/06 00:38:12;;;;;;;1.92;0.80;;;2.10;99.90;;;;;;5067371;28;20127;-83
2023/03/06 00:41:02;;;;;;;2.90;0.80;;;1.80;99.90;;;;;;5068128;28;20123;-82
2023/03/06 00:43:36;;;;;;;2.97;0.95;;;2.20;99.90;;;;;;5062588;28;20104;-83
2023/03/06 00:46:05;;;;;;;1.52;0.60;;;2.00;99.90;;;;;;5060987;28;20131;-82
2023/03/06 00:52:18;;;;;;;3.83;0.90;;;2.20;99.90;;;;;;5073155;28;20135;-83
2023/03/06 00:54:55;;;;;;;1.98;0.77;;;1.90;99.90;;;;;;5096283;28;20051;-84
2023/03/06 00:57:43;;;;;;;5.07;0.98;;;2.10;99.90;;;;;;5064921;28;20510;-84
2023/03/06 01:01:05;;;;;;;6.57;1.10;;;2.10;99.90;;;;;;5057202;28;20392;-83
2023/03/06 01:04:27;;;;;;;3.22;1.08;;;2.50;99.90;;;;;;5058028;28;20161;-83
2023/03/06 02:11:47;;;;;;;3.22;1.15;;;2.00;99.90;;;;;;4978090;28;20153;-83
2023/03/06 02:14:45;;;;;;;2.83;1.10;;;2.40;99.90;;;;;;4983016;28;20104;-83
2023/03/06 02:18:31;;;;;;;1.67;1.35;;;1.90;99.90;;;;;;4986036;28;20044;-82
2023/03/06 02:25:21;;;;;;;2.40;1.10;;;1.50;99.90;;;;;;4996765;28;20078;-83
2023/03/06 02:28:51;;;;;;;1.48;0.95;;;2.10;99.90;;;;;;4953101;28;20046;-83
2023/03/06 02:32:09;;;;;;;0.52;0.50;;;1.50;99.90;;;;;;4884958;29;20143;-83
2023/03/06 02:35:28;;;;;;;3.40;0.98;;;1.40;99.90;;;;;;4891411;29;20044;-83
2023/03/06 02:38:45;;;;;;;1.85;0.98;;;1.40;99.90;;;;;;4830314;29;20050;-83
2023/03/06 02:41:55;;;;;;;1.88;1.20;;;1.70;99.90;;;;;;4831998;29;20049;-82
2023/03/06 02:48:26;;;;;;;1.20;0.90;;;2.20;99.90;;;;;;4757699;29;20075;-83
2023/03/06 02:52:08;;;;;;;1.63;0.98;;;1.70;99.90;;;;;;4750971;29;20121;-83
2023/03/06 03:06:21;;;;;;;1.83;1.27;;;1.70;99.90;;;;;;5656367;22;21346179;-83
2023/03/06 03:09:04;;;;;;;1.38;0.90;;;2.10;99.90;;;;;;6217301;23;20676;-83
2023/03/06 03:29:24;;;;;;;2.90;1.20;;;1.40;99.90;;;;;;6014002;23;20011;-83
2023/03/06 03:32:41;;;;;;;1.35;0.98;;;1.50;99.90;;;;;;5912885;24;20492;-83
2023/03/06 04:02:42;;;;;;;2.55;1.15;;;1.10;99.90;;;;;;6336885;22;20512;-82
2023/03/06 04:37:02;;;;;;;2.78;1.98;;;1.10;99.90;;;;;;6359469;22;20094;-82
2023/03/06 05:18:09;;;;;;;7.85;3.72;;;1.50;99.90;;;;;;6260618;22;20584;-81
2023/03/06 05:25:22;;;;;;;;;;;;;;;;;;;;;
2023/03/06 05:28:45;;;;;;;4.65;2.80;;;1.50;99.90;;;;;;6203707;23;20018;-82
2023/03/06 05:32:17;;;;;;;6.18;2.80;;;1.10;99.90;;;;;;6149974;23;20010;-82
2023/03/06 05:35:19;;;;;;;4.47;2.30;;;1.60;99.90;;;;;;6009421;23;20435;-82
2023/03/06 05:38:37;;;;;;;8.75;2.53;;;1.50;99.90;;;;;;5986767;23;20015;-82
2023/03/06 05:42:03;;;;;;;7.65;3.08;;;1.20;99.90;;;;;;5980763;23;20063;-82
2023/03/06 05:45:37;;;;;;;6.75;2.50;;;1.20;99.90;;;;;;5919568;24;20023;-82
2023/03/06 05:52:19;;;;;;;7.93;2.58;;;1.10;99.90;;;;;;5925465;24;20035;-83
2023/03/06 05:58:51;;;;;;;3.90;2.45;;;1.30;99.90;;;;;;5925606;24;20104;-82
2023/03/06 06:02:05;;;;;;;;;;;;;;;;;;;;;
2023/03/06 06:06:08;;;;;;;6.10;2.38;;;1.10;99.90;;;;;;5955708;23;20019;-81
2023/03/06 06:09:17;;;;;;;;;;;;;;;;;;;;;
2023/03/06 06:15:46;;;;;;;3.17;2.30;;;1.20;99.90;;;;;;6039854;23;20041;-82
2023/03/06 06:19:19;;;;;;;;;;;;;;;;;;;;;
2023/03/06 06:25:56;;;;;;;4.13;2.35;;;0.80;99.90;;;;;;6089066;23;20024;-82
2023/03/06 06:32:21;;;;;;;9.65;2.30;;;0.60;99.90;;;;;;6050791;23;20018;-83
2023/03/06 06:39:21;;;;;;;5.25;2.47;;;1.20;99.90;;;;;;6088407;23;20029;-82
2023/03/06 06:42:09;;;;;;;4.93;2.75;;;1.20;99.90;;;;;;6088195;23;20434;-81
2023/03/06 06:45:46;;;;;;;;;;;;;;;;;;;;;
2023/03/06 06:48:15;;;;;;;5.45;3.15;;;0.70;99.90;;;;;;6060339;23;20148;-82
2023/03/06 06:51:38;;;;;;;13.35;3.60;;;1.20;99.90;;;;;;6070224;23;20010;-82
2023/03/06 06:54:11;;;;;;;9.52;4.30;;;0.80;99.90;;;;;;6090681;23;20026;-86
2023/03/06 06:56:45;;;;;;;10.43;4.60;;;0.90;99.90;;;;;;6069672;23;20013;-84
2023/03/06 06:59:10;;;;;;;9.02;5.22;;;0.80;99.90;;;;;;6124852;23;20091;-82
2023/03/06 07:01:36;;;;;;;12.90;5.53;;;0.60;99.90;;;;;;6124769;23;20136;-82
2023/03/06 07:04:02;;;;;;;9.65;5.07;;;1.00;99.90;;;;;;6177041;23;20017;-82
2023/03/06 07:06:28;;;;;;;13.30;5.13;;;0.80;99.90;;;;;;6126429;23;20095;-83
2023/03/06 07:09:13;;;;;;;7.93;5.30;;;1.20;99.90;;;;;;6150480;23;20895;-82
2023/03/06 07:11:47;;;;;;;9.45;5.00;;;0.70;99.90;;;;;;6149843;23;20017;-83
2023/03/06 07:14:35;;;;;;;10.10;5.13;;;1.00;99.90;;;;;;6126663;23;20464;-83
2023/03/06 07:17:16;;;;;;;8.52;4.88;;;0.80;99.90;;;;;;6151662;23;20021;-81
2023/03/06 07:23:10;;;;;;;7.40;5.32;;;1.30;99.90;;;;;;6184107;22;20020;-82
2023/03/06 07:25:39;;;;;;;8.85;4.80;;;0.80;99.90;;;;;;6219582;22;20086;-82
2023/03/06 07:28:51;;;;;;;5.93;4.47;;;0.90;99.90;;;;;;6218514;22;20012;-83
2023/03/06 07:31:21;;;;;;;6.45;4.30;;;0.80;99.90;;;;;;6098373;23;20028;-82
2023/03/06 07:33:48;;;;;;;5.75;4.43;;;1.20;99.90;;;;;;6100154;23;20015;-82
2023/03/06 07:36:14;;;;;;;6.53;4.70;;;1.30;99.90;;;;;;6100379;23;20021;-82
2023/03/06 07:39:01;;;;;;;7.03;4.40;;;1.60;99.90;;;;;;6100375;23;20072;-83
2023/03/06 07:41:39;;;;;;;6.50;4.20;;;1.50;99.90;;;;;;6100534;23;20017;-83
2023/03/06 07:44:26;;;;;;;5.93;3.97;;;1.10;99.90;;;;;;6101177;23;20319;-83
2023/03/06 07:46:54;;;;;;;8.60;4.20;;;1.90;99.90;;;;;;6121871;23;20382;-82
2023/03/06 07:49:23;;;;;;;5.80;4.28;;;1.90;99.90;;;;;;6099346;23;20013;-83
2023/03/06 07:51:48;;;;;;;6.38;4.15;;;1.50;99.90;;;;;;6122253;23;20127;-82
2023/03/06 07:54:14;;;;;;;6.63;4.32;;;1.50;99.90;;;;;;6098264;23;20093;-82
2023/03/06 07:56:40;;;;;;;6.20;4.10;;;1.50;99.90;;;;;;6099884;23;20018;-82
2023/03/06 07:59:05;;;;;;;8.50;4.25;;;1.50;99.90;;;;;;6100969;23;20029;-83
2023/03/06 08:01:31;;;;;;;5.53;3.83;;;1.60;99.90;;;;;;6100107;23;20013;-83
2023/03/06 08:03:58;;;;;;;5.13;3.83;;;2.40;99.90;;;;;;6101948;23;20077;-82
2023/03/06 08:06:25;;;;;;;8.85;4.05;;;2.50;99.90;;;;;;6105216;22;20042;-83
2023/03/06 08:08:53;;;;;;;6.45;3.92;;;2.10;99.90;;;;;;6222383;22;20435;-82
2023/03/06 08:11:20;;;;;;;7.00;3.67;;;2.50;99.90;;;;;;6220852;22;20016;-82
2023/03/06 08:13:47;;;;;;;5.53;3.85;;;2.00;99.90;;;;;;6222011;22;20011;-85
2023/03/06 08:16:16;;;;;;;5.88;3.10;;;2.50;99.90;;;;;;6259361;22;20023;-82
2023/03/06 08:18:41;;;;;;;2.67;2.45;;;2.40;99.90;;;;;;6246809;22;20023;-82
2023/03/06 08:21:11;;;;;;;4.80;2.20;;;2.70;99.90;;;;;;6272037;22;20203;-84
2023/03/06 08:23:37;;;;;;;5.63;1.88;;;2.30;99.90;;;;;;6246268;22;20015;-83
2023/03/06 08:26:10;;;;;;;7.75;2.22;;;1.90;99.90;;;;;;6271749;22;20012;-85
2023/03/06 08:29:21;;;;;;;2.83;2.00;;;2.30;99.90;;;;;;6243477;22;20022;-82
2023/03/06 08:31:47;;;;;;;3.25;2.13;;;2.20;99.90;;;;;;6240039;22;20710;-83
2023/03/06 08:34:17;;;;;;;4.35;1.88;;;2.10;99.90;;;;;;6214973;22;20020;-82
2023/03/06 08:40:29;;;;;;;5.88;2.13;;;2.00;99.90;;;;;;6266172;22;20387;-82
2023/03/06 08:42:55;;;;;;;13.00;2.67;;;2.80;99.90;;;;;;6215407;22;20016;-82
2023/03/06 08:45:21;;;;;;;6.32;2.08;;;2.40;99.90;;;;;;6269113;22;20022;-82
2023/03/06 08:47:46;;;;;;;5.93;2.28;;;2.90;99.90;;;;;;6217777;22;20019;-83
2023/03/06 08:50:13;;;;;;;4.30;2.10;;;2.30;99.90;;;;;;6216734;22;20065;-83
2023/03/06 08:56:29;;;;;;;3.45;1.80;;;3.00;99.90;;;;;;6267923;22;20073;-83
2023/03/06 08:58:56;;;;;;;6.05;2.13;;;2.70;99.90;;;;;;6217611;22;20352;-83
2023/03/06 09:01:33;;;;;;;4.72;1.92;;;3.00;99.90;;;;;;6217716;22;20015;-82
2023/03/06 09:04:03;;;;;;;4.85;1.85;;;3.30;99.90;;;;;;6269455;22;20015;-82
2023/03/06 09:10:15;;;;;;;3.92;1.70;;;3.00;99.90;;;;;;6272031;22;20021;-83
2023/03/06 09:12:41;;;;;;;5.13;1.60;;;3.20;99.90;;;;;;6244792;22;20015;-82
2023/03/06 09:15:31;;;;;;;4.80;1.50;;;3.50;99.90;;;;;;6248248;22;20132;-82
2023/03/06 09:17:58;;;;;;;8.23;1.65;;;3.50;99.90;;;;;;6249708;22;20092;-83
2023/03/06 09:20:25;;;;;;;3.55;1.48;;;3.30;99.90;;;;;;6248696;22;20015;-82
2023/03/06 09:23:08;;;;;;;8.27;1.60;;;3.70;99.90;;;;;;6245105;22;20101;-82
2023/03/06 09:25:40;;;;;;;6.90;1.40;;;3.60;99.90;;;;;;6251686;22;20026;-82
2023/03/06 09:28:08;;;;;;;8.07;1.50;;;3.60;99.90;;;;;;6250003;22;20015;-82
2023/03/06 09:30:39;;;;;;;6.22;1.50;;;3.70;99.90;;;;;;6249144;22;20553;-82
2023/03/06 09:33:05;;;;;;;5.63;1.63;;;3.90;99.90;;;;;;6252088;22;20276;-83
2023/03/06 09:35:31;;;;;;;5.40;1.73;;;4.00;99.90;;;;;;6252817;22;20097;-82
2023/03/06 09:37:57;;;;;;;6.50;1.67;;;3.90;99.90;;;;;;6251895;22;20034;-82
2023/03/06 09:40:52;;;;;;;8.20;1.70;;;4.30;99.90;;;;;;6252105;22;20110;-82
2023/03/06 09:43:27;;;;;;;4.97;1.20;;;4.30;99.90;;;;;;6130042;23;20527;-82
2023/03/06 09:45:55;;;;;;;4.45;1.40;;;4.30;99.90;;;;;;6155744;23;20458;-83
2023/03/06 09:48:30;;;;;;;9.60;1.40;;;4.50;99.90;;;;;;6154989;23;20075;-82
2023/03/06 09:51:07;;;;;;;;;;;4.40;99.90;;;;;;6131257;23;20017;-83
2023/03/06 09:53:58;;;;;;;6.22;1.40;;;4.30;99.90;;;;;;6132992;23;19986;-82
2023/03/06 09:56:30;;;;;;;9.18;0.98;;;4.60;99.90;;;;;;6131258;23;20013;-83
2023/03/06 09:59:12;;;;;;;4.70;1.17;;;4.50;99.90;;;;;;6129464;23;20075;-82
2023/03/06 10:01:41;;;;;;;8.38;0.80;;;4.80;99.90;;;;;;6130946;23;20491;-82
2023/03/06 10:04:34;;;;;;;8.75;0.98;;;4.70;99.90;;;;;;6155620;23;20013;-82
2023/03/06 10:07:07;;;;;;;3.00;0.70;;;4.60;99.90;;;;;;6130738;23;20021;-80
2023/03/06 10:09:47;;;;;;;3.03;0.70;;;4.50;99.90;;;;;;6180546;23;20221;-82
2023/03/06 10:12:27;;;;;;;5.50;1.00;;;4.60;99.90;;;;;;6153487;23;20017;-82
2023/03/06 10:15:26;;;;;;;3.05;0.70;;;4.70;99.90;;;;;;6130120;23;20040;-82
2023/03/06 10:17:52;;;;;;;3.78;0.80;;;4.70;99.90;;;;;;6129910;23;20028;-82
2023/03/06 10:20:56;;;;;;;1.70;0.50;;;4.80;99.90;;;;;;6245597;22;20019;-82
2023/03/06 10:23:36;;;;;;;1.67;0.50;;;4.80;99.90;;;;;;6304373;22;20007;-82
2023/03/06 10:26:10;;;;;;;6.10;0.73;;;4.80;99.90;;;;;;6303902;22;20043;-83
2023/03/06 10:28:55;;;;;;;4.10;0.90;;;4.70;99.90;;;;;;6276174;22;20022;-82
2023/03/06 10:31:26;;;;;;;3.20;0.93;;;4.90;99.90;;;;;;6247764;22;20325;-82
2023/03/06 10:34:16;;;;;;;4.20;0.60;;;5.10;99.90;;;;;;6275486;22;20572;-83
2023/03/06 10:36:42;;;;;;;2.70;0.45;;;4.80;99.90;;;;;;6277385;22;20015;-82
2023/03/06 10:39:17;;;;;;;3.90;0.70;;;4.80;99.90;;;;;;6304186;22;20034;-82
2023/03/06 10:41:43;;;;;;;4.78;0.70;;;5.00;99.90;;;;;;6303653;22;20082;-83
2023/03/06 10:44:12;;;;;;;5.68;0.90;;;5.10;99.90;;;;;;6274712;22;20092;-83
2023/03/06 10:46:43;;;;;;;5.40;0.73;;;5.20;99.90;;;;;;6303809;22;20019;-83
2023/03/06 10:49:21;;;;;;;4.82;0.70;;;5.40;99.90;;;;;;6252587;22;20044;-85
2023/03/06 10:52:12;;;;;;;6.60;0.63;;;5.40;99.90;;;;;;6251221;22;20339;-84
2023/03/06 10:54:40;;;;;;;8.45;0.95;;;5.40;99.90;;;;;;6129645;23;20108;-85
2023/03/06 10:57:27;;;;;;;2.45;0.50;;;5.40;99.90;;;;;;6129635;23;20256;-84
2023/03/06 10:59:58;;;;;;;2.67;0.40;;;5.30;99.90;;;;;;6176899;23;20071;-85
2023/03/06 11:02:28;;;;;;;3.63;0.60;;;5.20;99.90;;;;;;6153522;23;20013;-84
2023/03/06 11:04:56;;;;;;;2.95;0.50;;;5.30;99.90;;;;;;6179024;23;20016;-83
2023/03/06 11:08:00;;;;;;;2.97;0.80;;;5.30;99.90;;;;;;6128178;23;20020;-84
2023/03/06 11:10:28;;;;;;;3.28;0.50;;;5.30;99.90;;;;;;6150248;23;20124;-85
2023/03/06 11:13:06;;;;;;;4.57;0.68;;;5.50;99.90;;;;;;6128626;23;20017;-83
2023/03/06 11:15:32;;;;;;;4.03;0.73;;;5.30;99.90;;;;;;6127633;23;20017;-85
2023/03/06 11:18:27;;;;;;;5.10;0.60;;;5.60;99.90;;;;;;6152375;23;20060;-84
2023/03/06 11:20:55;;;;;;;4.25;0.60;;;5.50;99.90;;;;;;6128447;23;20448;-86
2023/03/06 11:23:40;;;;;;;3.70;0.70;;;5.70;99.90;;;;;;6127456;23;20013;-85
2023/03/06 11:26:14;;;;;;;3.97;0.73;;;5.80;99.90;;;;;;6125282;23;20614;-84
2023/03/06 11:28:46;;;;;;;2.83;0.60;;;5.70;99.90;;;;;;6150659;23;20021;-83
2023/03/06 11:31:46;;;;;;;3.97;0.73;;;5.60;99.90;;;;;;6165283;22;20025;-84
2023/03/06 11:34:12;;;;;;;5.80;0.60;;;5.50;99.90;;;;;;6130181;23;20013;-85
2023/03/06 11:36:57;;;;;;;4.90;0.75;;;5.50;99.90;;;;;;6155621;23;20017;-85
2023/03/06 11:40:10;;;;;;;5.18;0.85;;;5.40;99.90;;;;;;6155005;23;20075;-84
2023/03/06 11:42:51;;;;;;;4.80;0.60;;;5.30;99.90;;;;;;6094111;23;20025;-84
2023/03/06 11:46:12;;;;;;;5.05;0.77;;;5.30;99.90;;;;;;6072682;23;20018;-85
2023/03/06 11:49:05;;;;;;;5.57;0.50;;;5.40;99.90;;;;;;6057808;23;20047;-85
2023/03/06 11:51:49;;;;;;;2.50;0.70;;;5.20;99.90;;;;;;6090138;23;20069;-85
2023/03/06 11:58:45;;;;;;;;;;;;;;;;;;;;;
2023/03/06 12:01:44;;;;;;;4.72;0.80;;;5.80;99.90;;;;;;5889027;24;20511;-83
2023/03/06 12:05:02;;;;;;;5.07;1.10;;;6.20;99.90;;;;;;5868006;24;20131;-82
2023/03/06 12:50:08;;;;;;;1.85;0.88;;;6.10;99.90;;;;;;5826324;22;9341127;-82
2023/03/06 12:53:27;;;;;;;2.97;0.70;;;6.20;99.90;;;;;;6214577;23;20078;-83
2023/03/06 12:56:21;;;;;;;3.78;0.60;;;6.10;99.90;;;;;;6127346;23;20064;-83
2023/03/06 12:58:49;;;;;;;4.57;0.70;;;6.20;99.90;;;;;;6103363;23;20021;-82
2023/03/06 13:01:48;;;;;;;3.85;0.70;;;6.30;99.90;;;;;;6129782;23;20013;-84
2023/03/06 13:04:30;;;;;;;3.35;0.60;;;6.30;99.90;;;;;;6105648;23;20020;-82
2023/03/06 13:07:34;;;;;;;3.03;0.80;;;6.40;99.90;;;;;;6128373;23;20068;-84
2023/03/06 13:10:05;;;;;;;2.20;0.57;;;6.40;99.90;;;;;;5990387;23;20015;-84
2023/03/06 13:13:21;;;;;;;5.95;0.80;;;6.40;99.90;;;;;;5988313;23;20436;-83
2023/03/06 13:16:07;;;;;;;;;;;6.40;99.90;;;;;;5956049;24;20119;-85
2023/03/06 13:18:32;;;;;;;2.85;0.60;;;6.40;99.90;;;;;;5918493;24;20270;-81
2023/03/06 13:20:58;;;;;;;3.25;0.80;;;6.60;99.90;;;;;;5893501;24;20020;-83
2023/03/06 13:23:36;;;;;;;6.85;0.70;;;6.50;99.90;;;;;;5893924;24;20443;-79
2023/03/06 13:26:03;;;;;;;1.58;0.60;;;6.40;99.90;;;;;;5916741;24;20059;-84
2023/03/06 13:28:56;;;;;;;;;;;;;;;;;;;;;
2023/03/06 13:31:38;;;;;;;3.60;0.75;;;6.50;99.90;;;;;;5893814;24;20848;-83
2023/03/06 13:34:37;;;;;;;5.05;0.70;;;6.60;99.90;;;;;;5920178;24;20070;-85
2023/03/06 13:38:19;;;;;;;;;;;;;;;;;;;;;
2023/03/06 13:44:23;;;;;;;4.55;0.90;;;6.60;99.90;;;;;;5765418;24;20019;-83
2023/03/06 13:47:02;;;;;;;5.10;0.77;;;6.70;99.90;;;;;;5888578;24;20021;-84
2023/03/06 13:49:47;;;;;;;1.92;0.52;;;6.70;99.90;;;;;;5917849;24;20517;-89
2023/03/06 13:53:00;;;;;;;3.58;0.80;;;6.70;99.90;;;;;;5906294;24;20067;-84
2023/03/06 13:56:05;;;;;;;3.42;0.63;;;6.70;99.90;;;;;;5971052;23;20460;-86
2023/03/06 13:59:18;;;;;;;3.25;0.60;;;6.70;99.90;;;;;;5958912;23;20094;-86
2023/03/06 14:01:46;;;;;;;1.80;0.70;;;6.60;99.90;;;;;;6002712;23;20020;-85
2023/03/06 14:04:33;;;;;;;5.60;0.57;;;6.70;99.90;;;;;;5979211;23;20090;-85
2023/03/06 14:07:27;;;;;;;5.32;0.63;;;6.60;99.90;;;;;;5978857;23;20083;-85
2023/03/06 14:09:59;;;;;;;2.97;0.50;;;6.50;99.90;;;;;;5955157;23;20022;-83
2023/03/06 14:12:32;;;;;;;2.65;0.63;;;6.50;99.90;;;;;;5955482;23;20060;-84
2023/03/06 14:15:27;;;;;;;2.75;0.60;;;6.50;99.90;;;;;;6048709;23;20504;-83
2023/03/06 14:18:04;;;;;;;3.38;0.75;;;6.40;99.90;;;;;;6122029;23;20232;-85
2023/03/06 14:20:51;;;;;;;1.52;0.70;;;6.30;99.90;;;;;;6098696;23;20434;-85
2023/03/06 14:23:37;;;;;;;3.60;1.10;;;6.40;99.90;;;;;;6183660;23;20075;-86
2023/03/06 14:26:16;;;;;;;1.98;1.08;;;6.40;99.90;;;;;;6181751;23;20038;-84
2023/03/06 14:28:57;;;;;;;3.58;1.20;;;6.40;99.90;;;;;;6182247;23;20017;-85
2023/03/06 14:31:32;;;;;;;1.92;1.00;;;6.30;99.90;;;;;;6208816;23;20008;-84
2023/03/06 14:34:06;;;;;;;5.13;1.20;;;6.30;99.90;;;;;;6211131;23;20017;-86
2023/03/06 14:40:43;;;;;;;4.30;1.00;;;6.40;99.90;;;;;;6147804;23;20028;-83
2023/03/06 14:43:26;;;;;;;5.53;3.25;;;6.30;99.90;;;;;;6062050;23;20447;-84
2023/03/06 14:46:00;;;;;;;4.28;1.73;;;6.20;99.90;;;;;;6041008;23;20359;-84
2023/03/06 14:48:44;;;;;;;2.42;1.10;;;6.10;99.90;;;;;;6039369;23;20081;-85
2023/03/06 14:51:26;;;;;;;5.68;2.15;;;6.00;99.90;;;;;;6037957;23;20103;-88
2023/03/06 14:57:32;;;;;;;3.80;1.10;;;6.00;99.90;;;;;;6059354;23;20018;-85
2023/03/06 14:59:59;;;;;;;2.58;0.95;;;6.00;99.90;;;;;;6011886;23;20015;-86
2023/03/06 15:02:31;;;;;;;2.65;0.90;;;5.90;99.90;;;;;;6010998;23;20011;-83
2023/03/06 15:05:20;;;;;;;2.40;0.90;;;6.00;99.90;;;;;;6011158;23;20355;-86
2023/03/06 15:07:47;;;;;;;2.00;0.98;;;6.00;99.90;;;;;;6010408;23;20030;-88
2023/03/06 15:10:27;;;;;;;8.00;1.00;;;6.00;99.90;;;;;;6014559;23;20030;-86
2023/03/06 15:12:56;;;;;;;1.75;0.90;;;6.00;99.90;;;;;;6028788;23;20631;-83
2023/03/06 15:19:37;;;;;;;3.20;1.55;;;5.90;99.90;;;;;;6150964;23;20087;-85
2023/03/06 15:23:02;;;;;;;2.88;1.40;;;6.00;99.90;;;;;;6147718;23;20051;-85
2023/03/06 15:25:31;;;;;;;2.95;1.23;;;5.90;99.90;;;;;;6129535;23;20020;-84
2023/03/06 15:28:05;;;;;;;1.85;1.23;;;5.90;99.90;;;;;;6130178;23;20345;-86
2023/03/06 15:30:38;;;;;;;4.40;1.40;;;5.90;99.90;;;;;;6129666;23;20009;-85
2023/03/06 15:33:18;;;;;;;5.15;2.10;;;5.80;99.90;;;;;;6129344;23;20110;-85
2023/03/06 15:36:00;;;;;;;3.45;2.13;;;5.70;99.90;;;;;;6128310;23;20016;-85
2023/03/06 15:38:44;;;;;;;3.90;1.73;;;5.80;99.90;;;;;;6128818;23;20017;-83
2023/03/06 15:41:50;;;;;;;2.08;1.35;;;5.80;99.90;;;;;;6127295;23;20013;-85
2023/03/06 15:44:33;;;;;;;3.85;1.60;;;5.80;99.90;;;;;;6129664;23;20045;-84
2023/03/06 15:47:34;;;;;;;2.95;1.52;;;5.80;99.90;;;;;;6125669;23;20328;-84
2023/03/06 15:50:19;;;;;;;6.13;1.40;;;5.80;99.90;;;;;;6061970;23;20023;-84
2023/03/06 15:53:03;;;;;;;4.95;1.58;;;5.70;99.90;;;;;;6062449;23;20054;-83
2023/03/06 15:55:44;;;;;;;5.82;1.75;;;5.70;99.90;;;;;;6088823;23;20471;-86
2023/03/06 16:01:56;;;;;;;3.80;1.05;;;5.70;99.90;;;;;;6062034;23;20014;-84
2023/03/06 16:04:21;;;;;;;4.03;2.05;;;5.60;99.90;;;;;;6061631;23;20033;-82
2023/03/06 16:06:56;;;;;;;3.65;1.30;;;5.50;99.90;;;;;;6064982;23;20022;-82
2023/03/06 16:21:05;;;;;;;3.85;1.40;;;5.40;99.90;;;;;;6108784;23;20187;-83
2023/03/06 16:26:59;;;;;;;3.55;1.33;;;5.30;99.90;;;;;;6151531;23;19919;-84
2023/03/06 16:29:29;;;;;;;4.47;1.50;;;5.30;99.90;;;;;;6110201;23;20095;-85
2023/03/06 16:31:56;;;;;;;3.53;1.90;;;5.10;99.90;;;;;;6161528;23;20103;-85
2023/03/06 16:34:36;;;;;;;2.65;1.70;;;5.10;99.90;;;;;;6159852;23;20013;-85
2023/03/06 16:37:15;;;;;;;4.88;2.40;;;4.80;99.90;;;;;;6166885;23;20106;-84
2023/03/06 16:40:08;;;;;;;11.70;8.10;;;4.70;99.90;;;;;;6159225;23;20088;-85
2023/03/06 16:42:49;;;;;;;;;;;4.70;99.90;;;;;;6158356;23;20023;-83
2023/03/06 16:45:48;;;;;;;;;;;4.20;99.90;;;;;;6120369;23;20354;-84
2023/03/06 16:48:26;;;;;;;;;;;4.20;99.90;;;;;;6071744;23;19955;-85
2023/03/06 16:50:55;;;;;;;;;;;4.10;99.90;;;;;;6096027;23;20698;-83
2023/03/06 16:53:21;;;;;;;;;;;4.10;99.90;;;;;;6094159;23;19913;-86
2023/03/06 16:55:47;;;;;;;;;;;4.30;99.90;;;;;;6069643;23;20036;-87
2023/03/06 16:58:13;;;;;;;;;;;3.90;99.90;;;;;;6093823;23;19912;-90
2023/03/06 17:00:44;;;;;;;;;;;3.70;99.90;;;;;;6070690;23;20005;-86
2023/03/06 17:03:12;;;;;;;;;;;3.60;99.90;;;;;;6070409;23;19939;-83
2023/03/06 17:05:40;;;;;;;;;;;4.10;99.90;;;;;;6093708;23;19964;-89
2023/03/06 17:08:35;;;;;;;;;;;3.60;99.90;;;;;;6070025;23;20203;-83
2023/03/06 17:11:51;;;;;;;;;;;3.90;99.90;;;;;;6097190;23;19912;-84
2023/03/06 17:14:34;;;;;;;;;;;4.10;99.90;;;;;;6088110;23;19913;-86
2023/03/06 17:20:33;;;;;;;;;;;3.50;99.90;;;;;;6093202;23;19991;-86
2023/03/06 17:22:59;;;;;;;;;;;3.50;99.90;;;;;;6045781;23;19980;-88
2023/03/06 17:25:24;;;;;;;;;;;3.60;99.90;;;;;;6091506;23;19917;-82
2023/03/06 17:27:50;;;;;;;;;;;4.20;99.90;;;;;;6042071;23;20346;-85
2023/03/06 17:30:16;;;;;;;;;;;3.40;99.90;;;;;;6046393;23;19932;-84
2023/03/06 17:32:41;;;;;;;;;;;3.70;99.90;;;;;;6051673;23;19920;-87
2023/03/06 17:35:07;;;;;;;;;;;3.90;99.90;;;;;;6049235;23;19949;-88
2023/03/06 17:37:33;;;;;;;;;;;3.60;99.90;;;;;;6048066;23;19921;-88
2023/03/06 17:40:16;;;;;;;;;;;3.80;99.90;;;;;;6072621;23;19951;-87
2023/03/06 17:42:42;;;;;;;;;;;3.80;99.90;;;;;;6078360;23;19999;-86
2023/03/06 17:45:09;;;;;;;;;;;3.50;99.90;;;;;;6096657;23;19976;-86
2023/03/06 17:47:35;;;;;;;;;;;3.50;99.90;;;;;;6069793;23;20275;-84
2023/03/06 17:50:00;;;;;;;;;;;3.50;99.90;;;;;;6136546;23;19916;-86
2023/03/06 17:52:26;;;;;;;;;;;3.70;99.90;;;;;;6211097;23;20034;-82
2023/03/06 17:54:52;;;;;;;;;;;3.60;99.90;;;;;;6209771;23;19986;-83
2023/03/06 17:57:17;;;;;;;;;;;3.80;99.90;;;;;;6183784;23;19920;-87
2023/03/06 17:59:52;;;;;;;;;;;3.60;99.90;;;;;;6182058;23;19912;-86
2023/03/06 18:02:18;;;;;;;;;;;3.50;99.90;;;;;;6181587;23;19919;-83
2023/03/06 18:04:44;;;;;;;;;;;4.00;99.90;;;;;;6182323;23;20228;-83
2023/03/06 18:07:10;;;;;;;;;;;3.10;99.90;;;;;;6183894;23;19920;-84
2023/03/06 18:09:45;;;;;;;;;;;3.20;99.90;;;;;;6184011;23;19911;-87
2023/03/06 18:12:10;;;;;;;;;;;3.10;99.90;;;;;;6181722;23;20312;-84
2023/03/06 18:14:36;;;;;;;;;;;3.10;99.90;;;;;;6184231;23;19916;-87
2023/03/06 18:17:05;;;;;;;;;;;3.40;99.90;;;;;;6185603;23;19911;-85
2023/03/06 18:19:30;;;;;;;;;;;3.70;99.90;;;;;;6188200;23;20468;-84
2023/03/06 18:21:56;;;;;;;;;;;3.40;99.90;;;;;;6187087;23;19952;-83
2023/03/06 18:24:22;;;;;;;;;;;3.80;99.90;;;;;;6209468;23;19965;-87
2023/03/06 18:26:48;;;;;;;;;;;3.80;99.90;;;;;;6207619;23;19938;-86
2023/03/06 18:29:19;;;;;;;;;;;3.40;99.90;;;;;;6186529;23;19919;-85
2023/03/06 18:31:48;;;;;;;;;;;3.30;99.90;;;;;;6188227;23;20297;-86
2023/03/06 18:34:20;;;;;;;;;;;3.70;99.90;;;;;;6186340;23;19919;-87
2023/03/06 18:36:51;;;;;;;;;;;3.00;99.90;;;;;;6182787;23;19922;-86
2023/03/06 18:39:20;;;;;;;;;;;3.20;99.90;;;;;;6184654;23;19919;-85
2023/03/06 18:41:49;;;;;;;;;;;3.80;99.90;;;;;;6188768;23;19935;-85
2023/03/06 18:44:28;;;;;;;;;;;3.10;99.90;;;;;;6214731;23;20621;-84
2023/03/06 18:46:57;;;;;;;;;;;3.60;99.90;;;;;;6186313;23;19920;-88
2023/03/06 18:49:23;;;;;;;;;;;3.60;99.90;;;;;;6183123;23;19997;-85
2023/03/06 18:51:49;;;;;;;;;;;3.80;99.90;;;;;;6185719;23;19920;-86
2023/03/06 18:57:37;;;;;;;;;;;3.10;99.90;;;;;;6211498;23;19960;-84
2023/03/06 19:00:36;;;;;;;;;;;3.60;99.90;;;;;;6207431;23;20010;-84
2023/03/06 19:19:25;;;;;;;;;;;3.10;99.90;;;;;;6229363;22;19931;-85
2023/03/06 19:22:20;;;;;;;;;;;2.90;99.90;;;;;;6149356;23;19916;-88
2023/03/06 19:24:48;;;;;;;;;;;3.40;99.90;;;;;;6125603;23;20226;-87
2023/03/06 19:27:17;;;;;;;;;;;3.50;99.90;;;;;;6149680;23;19927;-85
2023/03/06 19:29:42;;;;;;;;;;;3.30;99.90;;;;;;6125971;23;20253;-84
2023/03/06 19:32:17;;;;;;;;;;;3.40;99.90;;;;;;6149089;23;19912;-85
2023/03/06 19:34:42;;;;;;;;;;;3.30;99.90;;;;;;6125469;23;19976;-85
2023/03/06 19:37:26;;;;;;;;;;;2.90;99.90;;;;;;6101763;23;19935;-86
2023/03/06 20:29:15;;;;;;;;;;;3.50;99.90;;;;;;6240923;22;19919;-90
2023/03/06 20:32:25;;;;;;;;;;;;;;;;;;;;;
2023/03/06 20:49:00;;;;;;;;;;;3.60;99.90;;;;;;6249668;23;19961;-87
2023/03/06 20:51:31;;;;;;;;;;;3.70;99.90;;;;;;6195369;23;19962;-86
2023/03/06 20:54:03;;;;;;;;;;;3.60;99.90;;;;;;6194518;23;19911;-88
2023/03/06 20:56:35;;;;;;;;;;;3.10;99.90;;;;;;6219055;22;19915;-90
2023/03/06 20:59:22;;;;;;;;;;;3.70;99.90;;;;;;6250394;22;19915;-87
2023/03/06 21:01:48;;;;;;;;;;;3.60;99.90;;;;;;6220745;22;19918;-90
2023/03/06 21:07:41;;;;;;;;;;;3.50;99.90;;;;;;6093407;23;19921;-86
2023/03/06 21:17:17;;;;;;;;;;;3.20;99.90;;;;;;6035007;23;20350;-84
2023/03/06 21:20:27;;;;;;;;;;;3.50;99.90;;;;;;6012804;23;19914;-88
2023/03/06 21:23:19;;;;;;;;;;;3.70;99.90;;;;;;5932949;23;20311;-84
2023/03/06 21:33:14;;;;;;;;;;;;;;;;;;;;;
2023/03/06 21:36:34;;;;;;;;;;;3.50;99.90;;;;;;5946601;24;19975;-87
2023/03/06 21:59:48;;;;;;;;;;;;;;;;;;;;;
